Latest Coastal Weather Observations for Port Macquarie Airport

IDN60701

Issued at 2:41 pm EST Tuesday 3 May 2016 (issued every 10 minutes, with the page automatically refreshed every 10 minutes)

About coastal observations | Map of coastal stations | Coastal observations for NSW | Marine services | Other Formats
Station Details ID: 060139 Name: PORT MACQUARIE AIRPORT AWS Lat: -31.43 Lon: 152.87 Height: 4.2 m
Data from the previous 72 hours. | See also: Recent months at Port Macquarie Airport
Date/Time
EST
Temp

°C
Wind Pressure Rain
since 9am
mm
Weather Cloud Vis
km
Sea
Height
m
Swell
Dir
 
Speed
knots
Gust
knots
hPa Trend Height
m
Period
s
Dir
03/02:30pm 24.5 ENE 8 10 1008.9 - 0.0 - - 10 - - - -
03/02:00pm 24.5 ENE 9 10 1009.1 - 0.0 - - 10 - - - -
03/01:30pm 24.9 NE 8 10 1009.5 - 0.0 - - 10 - - - -
03/01:00pm 25.7 NNE 5 7 1009.8 - 0.0 - Partly cloudy 10 - - - -
03/12:30pm 25.7 NE 3 6 1010.3 - 0.0 - - 10 - - - -
03/12:00pm 25.8 WNW 4 7 1010.7 - 0.0 - - 10 - - - -
03/11:30am 24.8 SW 5 7 1011.1 - 0.0 - - 10 - - - -
03/11:00am 24.4 S 4 6 1011.7 - 0.0 - - 10 - - - -
03/10:30am 23.6 WSW 5 8 1012.3 - 0.0 - - 10 - - - -
03/10:00am 23.5 WSW 6 8 1012.6 - 0.0 - - 10 - - - -
03/09:30am 22.4 W 6 8 1012.9 - 0.0 - - 10 - - - -
03/09:00am 21.4 WNW 4 6 1013.2 - 0.0 - - 10 - - - -
03/08:30am 19.6 WNW 6 8 1013.4 - 0.0 - - 10 - - - -
03/08:00am 17.9 WNW 4 6 1013.2 - 0.0 - - 10 - - - -
03/07:30am 16.3 WNW 6 8 1013.1 - 0.0 - - 10 - - - -
03/07:00am 14.6 CALM 0 0 1012.8 - 0.0 - - 10 - - - -
03/06:46am 13.9 CALM 0 0 1012.6 - 0.0 - - 9 - - - -
03/06:30am 13.1 CALM 0 0 1012.6 - 0.0 - - 1 - - - -
03/06:03am 14.2 CALM 0 0 1012.7 - 0.0 - - 5 - - - -
03/06:00am 14.2 CALM 0 2 1012.7 - 0.0 - - 10 - - - -
03/05:30am 14.1 WSW 1 4 1012.7 - 0.0 - - 10 - - - -
03/05:00am 14.8 CALM 0 0 1012.2 - 0.0 - - 10 - - - -
03/04:30am 16.1 CALM 0 3 1011.7 - 0.0 - - 10 - - - -
03/04:00am 16.1 W 3 5 1011.5 - 0.0 - Partly cloudy 10 - - - -
03/03:30am 16.2 CALM 0 0 1011.5 - 0.0 - Partly cloudy 10 - - - -
03/03:00am 17.3 CALM 0 0 1011.5 - 0.0 - Partly cloudy 10 - - - -
03/02:30am 17.6 N 2 4 1011.6 - 0.0 - Partly cloudy 10 - - - -
03/02:00am 17.4 W 2 3 1011.8 - 0.0 - Partly cloudy 10 - - - -
03/01:30am 18.2 NNW 4 5 1012.2 - 0.0 - Partly cloudy 10 - - - -
03/01:00am 18.7 W 1 3 1012.5 - 0.0 - Partly cloudy 10 - - - -
03/12:30am 18.9 W 5 6 1012.9 - 0.0 - Cloudy 10 - - - -
03/12:00am 19.2 WNW 5 7 1012.9 - 0.0 - Cloudy 10 - - - -
 
Date/Time
EST
Temp

°C
Wind Pressure Rain
since 9am
mm
Weather Cloud Vis
km
Sea
Height
m
Swell
Dir
 
Speed
knots
Gust
knots
hPa Trend Height
m
Period
s
Dir
02/11:30pm 19.6 NW 5 6 1013.2 - 0.0 - Cloudy 10 - - - -
02/11:00pm 19.8 NW 2 4 1013.6 - 0.0 - Cloudy 10 - - - -
02/10:30pm 20.1 NW 3 5 1013.6 - 0.0 - Cloudy 10 - - - -
02/10:00pm 20.5 N 4 6 1013.3 - 0.0 - Partly cloudy 10 - - - -
02/09:30pm 20.7 NE 3 7 1013.5 - 0.0 - Partly cloudy 10 - - - -
02/09:00pm 20.4 N 6 7 1014.7 - 0.0 - Mostly cloudy 10 - - - -
02/08:30pm 20.1 NNW 3 5 1014.6 - 0.0 - Partly cloudy 10 - - - -
02/08:00pm 20.2 N 4 5 1015.1 - 0.0 - Partly cloudy 10 - - - -
02/07:30pm 20.2 N 4 5 1015.1 - 0.0 - - 10 - - - -
02/07:00pm 20.1 N 3 4 1014.9 - 0.0 - - 10 - - - -
02/06:30pm 20.1 NW 4 4 1014.7 - 0.0 - Partly cloudy 10 - - - -
02/06:00pm 20.6 N 4 5 1014.4 - 0.0 - Mostly cloudy 10 - - - -
02/05:30pm 21.4 N 4 6 1013.8 - 0.0 - - 10 - - - -
02/05:00pm 21.9 NNE 5 6 1013.6 - 0.0 - - 10 - - - -
02/04:30pm 22.2 NNE 5 7 1013.9 - 0.0 - - 10 - - - -
02/04:00pm 22.4 NE 7 9 1013.5 - 0.0 - - 10 - - - -
02/03:30pm 22.8 ENE 7 10 1013.5 - 0.0 - - 10 - - - -
02/03:00pm 22.8 ENE 8 11 1013.4 - 0.0 - - 10 - - - -
02/02:30pm 23.0 ENE 8 11 1013.4 - 0.0 - - 10 - - - -
02/02:00pm 24.6 NE 9 11 1013.5 - 0.0 - - 10 - - - -
02/01:30pm 24.6 ENE 9 11 1013.5 - 0.0 - - 10 - - - -
02/01:00pm 24.9 ENE 8 10 1013.9 - 0.0 - - 10 - - - -
02/12:30pm 24.8 NNE 4 8 1014.9 - 0.0 - - 10 - - - -
02/12:00pm 24.7 NE 5 8 1015.3 - 0.0 - - 10 - - - -
02/11:30am 24.1 N 4 7 1015.8 - 0.0 - - 10 - - - -
02/11:00am 23.8 NW 3 6 1016.5 - 0.0 - - 10 - - - -
02/10:30am 22.9 NW 3 4 1017.0 - 0.0 - - 10 - - - -
02/10:00am 21.7 WNW 4 6 1017.6 - 0.0 - - 10 - - - -
02/09:30am 20.0 WNW 4 5 1017.9 - 0.0 - - 10 - - - -
02/09:00am 19.4 WNW 3 5 1017.9 - 8.8 - - 10 - - - -
02/08:30am 17.3 WNW 5 7 1018.2 - 8.8 - - 10 - - - -
02/08:00am 15.8 WNW 4 6 1018.2 - 8.8 - - 10 - - - -
02/07:30am 14.9 W 4 6 1018.0 - 8.8 - - 10 - - - -
02/07:00am 14.1 WNW 4 6 1017.8 - 8.8 - - 10 - - - -
02/06:30am 13.1 WNW 3 5 1017.6 - 8.8 - - 10 - - - -
02/06:00am 13.0 NW 4 4 1017.3 - 8.8 - - 10 - - - -
02/05:30am 13.3 CALM 0 0 1017.0 - 8.8 - - 10 - - - -
02/05:00am 13.6 WNW 2 4 1016.7 - 8.8 - - 10 - - - -
02/04:30am 13.6 W 4 5 1016.3 - 8.6 - - 10 - - - -
02/04:08am 13.9 CALM 0 0 1016.1 - 8.6 - - 10 - - - -
02/04:00am 13.6 CALM 0 3 1016.1 - 8.6 - - 10 - - - -
02/03:30am 13.7 CALM 0 3 1015.8 - 8.6 - - 1 - - - -
02/03:12am 13.0 CALM 0 0 1015.7 - 8.6 - - 5 - - - -
02/03:00am 13.8 CALM 0 3 1015.5 - 8.6 - - 10 - - - -
02/02:30am 14.5 NNW 2 3 1015.6 - 8.6 - - 10 - - - -
02/02:00am 14.2 SSW 3 5 1015.7 - 8.6 - - 8 - - - -
02/01:30am 15.2 WNW 6 7 1015.7 - 8.6 - - 10 - - - -
02/01:27am 15.2 NW 6 7 1015.7 - 8.6 - - 10 - - - -
02/01:00am 14.1 CALM 0 0 1015.8 - 8.6 - - 0.4 - - - -
02/12:50am 14.3 CALM 0 0 1015.9 - 8.6 - - 3 - - - -
02/12:30am 15.6 NNE 3 4 1015.9 - 8.6 - - 10 - - - -
02/12:00am 16.4 NW 7 10 1016.0 - 8.6 - - 10 - - - -
 
Date/Time
EST
Temp

°C
Wind Pressure Rain
since 9am
mm
Weather Cloud Vis
km
Sea
Height
m
Swell
Dir
 
Speed
knots
Gust
knots
hPa Trend Height
m
Period
s
Dir
01/11:30pm 16.3 NW 4 7 1016.0 - 8.6 - - 10 - - - -
01/11:00pm 15.9 NNW 6 8 1016.0 - 8.6 - - 10 - - - -
01/10:30pm 16.8 NNW 5 6 1015.6 - 8.6 - - 10 - - - -
01/10:00pm 17.4 NW 6 7 1015.6 - 8.6 - - 10 - - - -
01/09:30pm 18.0 NNW 7 9 1015.8 - 8.6 - - 10 - - - -
01/09:00pm 18.5 WNW 6 8 1015.7 - 8.6 - Partly cloudy 10 - - - -
01/08:30pm 18.4 WSW 6 9 1015.3 - 8.6 - - 10 - - - -
01/08:00pm 18.4 W 6 8 1015.4 - 8.6 - - 10 - - - -
01/07:30pm 17.8 CALM 0 3 1015.4 - 8.4 - - 10 - - - -
01/07:00pm 18.4 W 3 4 1014.9 - 8.4 - - 10 - - - -
01/06:30pm 18.4 CALM 0 0 1014.6 - 8.4 - - 10 - - - -
01/06:00pm 18.9 W 5 7 1014.6 - 8.4 - Cloudy 10 - - - -
01/05:30pm 19.0 NW 5 7 1014.7 - 8.4 - - 10 - - - -
01/05:00pm 19.3 WSW 7 11 1014.7 - 8.4 - Partly cloudy 10 - - - -
01/04:30pm 19.4 N 8 12 1014.7 - 8.4 - Partly cloudy 10 - - - -
01/04:00pm 19.3 NNW 8 11 1015.2 - 8.4 - Partly cloudy 10 - - - -
01/03:30pm 19.5 N 7 9 1015.5 - 7.8 - Partly cloudy 10 - - - -
01/03:00pm 19.7 N 7 9 1015.5 - 6.8 Rain Cloudy 10 - - - -
01/02:30pm 19.7 W 4 5 1015.2 - 5.8 - Partly cloudy 10 - - - -
01/02:00pm 19.8 NNW 6 8 1015.3 - 5.4 - Partly cloudy 10 - - - -
01/01:43pm 20.2 NNE 5 6 1015.5 - 4.8 - Partly cloudy 10 - - - -
01/01:30pm 20.1 NNW 2 5 1015.7 - 4.2 - Partly cloudy 5 - - - -
01/01:27pm 20.1 NNW 3 6 1015.8 - 3.8 - Partly cloudy 5 - - - -
01/01:26pm 20.1 NNW 4 7 1015.9 - 3.8 - Partly cloudy 6 - - - -
01/01:08pm 20.0 WSW 6 8 1016.3 - 2.0 - Partly cloudy 5 - - - -
01/01:00pm 20.3 WSW 6 8 1016.2 - 0.8 - Partly cloudy 10 - - - -
01/12:30pm 20.4 SSW 7 11 1015.8 - 0.6 - Partly cloudy 10 - - - -
01/12:00pm 20.8 SSW 10 13 1016.2 - 0.4 Rain Cloudy 10 - - - -
01/11:30am 21.5 SSW 6 9 1016.4 - 0.0 - Partly cloudy 10 - - - -
01/11:00am 20.5 CALM 0 7 1016.3 - 0.0 - Partly cloudy 10 - - - -
01/10:30am 20.2 W 3 4 1016.3 - 0.0 - Partly cloudy 10 - - - -
01/10:00am 19.9 WNW 3 5 1016.1 - 0.0 - Cloudy 10 - - - -
01/09:30am 19.7 WNW 3 4 1016.4 - 0.0 - Cloudy 10 - - - -
01/09:00am 19.6 N 4 5 1016.2 - 0.0 - Mostly cloudy 10 - - - -
01/08:30am 19.2 NNW 4 5 1016.2 - 0.0 - Cloudy 10 - - - -
01/08:00am 18.8 NNW 3 4 1016.0 - 0.0 - - 10 - - - -
01/07:30am 17.9 CALM 0 3 1016.0 - 0.0 - - 10 - - - -
01/07:00am 17.6 NW 3 4 1015.8 - 0.0 - - 10 - - - -
01/06:56am 17.6 NW 3 4 1015.7 - 0.0 - - 10 - - - -
01/06:39am 16.7 CALM 0 0 1015.5 - 0.0 - Partly cloudy 0.9 - - - -
01/06:30am 16.5 CALM 0 0 1015.6 - 0.0 - Partly cloudy 0.6 - - - -
01/06:15am 16.3 CALM 0 0 1015.4 - 0.0 - Partly cloudy 0.7 - - - -
01/06:00am 16.1 WNW 1 3 1015.4 - 0.0 - Partly cloudy 2 - - - -
01/05:30am 16.6 NNW 1 4 1015.1 - 0.0 - Partly cloudy 0.5 - - - -
01/05:11am 17.4 CALM 0 0 1014.9 - 0.0 - Partly cloudy 0.4 - - - -
01/05:00am 17.6 N 1 4 1014.9 - 0.0 - Partly cloudy 0.5 - - - -
01/04:53am 17.9 N 3 4 1014.9 - 0.0 - Partly cloudy 0.3 - - - -
01/04:30am 17.8 NNW 3 4 1015.2 - 0.0 - Partly cloudy 10 - - - -
01/04:00am 17.9 NW 5 5 1015.2 - 0.0 - - 2 - - - -
01/03:32am 18.3 CALM 0 1 1015.1 - 0.0 - - 5 - - - -
01/03:30am 18.1 CALM 0 1 1015.1 - 0.0 - - 6 - - - -
01/03:00am 18.5 NNW 4 6 1015.2 - 0.0 - Mostly clear 10 - - - -
01/02:30am 19.2 N 4 5 1015.3 - 0.0 - - 10 - - - -
01/02:00am 19.7 NNW 3 5 1015.7 - 0.0 - - 10 - - - -
01/01:30am 19.9 NNW 4 5 1015.8 - 0.0 - - 10 - - - -
01/01:00am 20.4 N 5 7 1015.9 - 0.0 - - 10 - - - -
01/12:30am 20.6 N 5 7 1016.2 - 0.0 - - 10 - - - -
01/12:00am 20.8 NNW 4 6 1016.7 - 0.0 - Cloudy 10 - - - -
 
Date/Time
EST
Temp

°C
Wind Pressure Rain
since 9am
mm
Weather Cloud Vis
km
Sea
Height
m
Swell
Dir
 
Speed
knots
Gust
knots
hPa Trend Height
m
Period
s
Dir
30/11:30pm 21.1 NNW 4 5 1016.8 - 0.0 - - 10 - - - -
30/11:00pm 21.3 NNE 6 8 1017.0 - 0.0 - Partly cloudy 10 - - - -
30/10:30pm 21.7 NNE 5 7 1017.6 - 0.0 - Partly cloudy 10 - - - -
30/10:00pm 21.6 N 5 6 1018.1 - 0.0 - Partly cloudy 10 - - - -
30/09:30pm 21.5 NNW 3 6 1018.0 - 0.0 - - 10 - - - -
30/09:00pm 21.8 N 4 6 1018.0 - 0.0 - Cloudy 10 - - - -
30/08:30pm 21.7 N 3 6 1017.6 - 0.0 - - 10 - - - -
30/08:00pm 21.8 N 6 8 1018.0 - 0.0 - - 10 - - - -
30/07:30pm 22.0 NNE 5 6 1018.0 - 0.0 - - 10 - - - -
30/07:00pm 22.0 N 4 5 1018.1 - 0.0 - - 10 - - - -
30/06:30pm 22.3 N 4 6 1018.0 - 0.0 - - 10 - - - -
30/06:00pm 22.5 NNE 5 7 1017.6 - 0.0 - Mostly cloudy 10 - - - -
30/05:30pm 22.7 NE 7 10 1017.1 - 0.0 - - 10 - - - -
30/05:00pm 23.2 NE 7 10 1016.9 - 0.0 - - 10 - - - -
30/04:30pm 23.8 NNE 8 13 1017.0 - 0.0 - - 10 - - - -
30/04:00pm 25.1 NE 8 12 1016.7 - 0.0 - - 10 - - - -
30/03:30pm 25.9 NE 8 12 1016.5 - 0.0 - - 10 - - - -
30/03:00pm 26.1 NE 9 12 1016.7 - 0.0 - - 10 - - - -

Other Formats:

Comma delimited format used in spreadsheet applications
http://www.bom.gov.au/fwo/IDN60701/IDN60701.94786.axf

JavaScript Object Notation format (JSON) in row-major order
http://www.bom.gov.au/fwo/IDN60701/IDN60701.94786.json